sensor_id;sensor_type;location;lat;lon;timestamp;pressure;altitude;pressure_sealevel;temperature;humidity
23166;BME280;11751;42.700;24.170;2023-02-22T00:00:25;93829.75;;;6.02;nan
23166;BME280;11751;42.700;24.170;2023-02-22T00:03:05;93820.66;;;6.01;nan
23166;BME280;11751;42.700;24.170;2023-02-22T00:05:32;93819.03;;;6.06;nan
23166;BME280;11751;42.700;24.170;2023-02-22T00:07:58;93821.41;;;6.15;nan
23166;BME280;11751;42.700;24.170;2023-02-22T00:10:25;93819.91;;;6.14;nan
23166;BME280;11751;42.700;24.170;2023-02-22T00:12:53;93818.41;;;6.13;nan
23166;BME280;11751;42.700;24.170;2023-02-22T00:15:21;93816.91;;;6.12;nan
23166;BME280;11751;42.700;24.170;2023-02-22T00:17:47;93819.56;;;6.30;nan
23166;BME280;11751;42.700;24.170;2023-02-22T00:20:14;93812.72;;;6.31;nan
23166;BME280;11751;42.700;24.170;2023-02-22T00:22:41;93811.34;;;6.38;nan
23166;BME280;11751;42.700;24.170;2023-02-22T00:25:07;93795.72;;;6.48;nan
23166;BME280;11751;42.700;24.170;2023-02-22T00:27:32;93798.66;;;6.63;nan
23166;BME280;11751;42.700;24.170;2023-02-22T00:29:58;93798.78;;;6.57;nan
23166;BME280;11751;42.700;24.170;2023-02-22T00:32:24;93796.09;;;6.65;nan
23166;BME280;11751;42.700;24.170;2023-02-22T00:34:53;93807.41;;;6.79;nan
23166;BME280;11751;42.700;24.170;2023-02-22T00:37:19;93808.16;;;7.00;nan
23166;BME280;11751;42.700;24.170;2023-02-22T00:39:49;93792.22;;;7.21;nan
23166;BME280;11751;42.700;24.170;2023-02-22T00:42:16;93801.91;;;7.41;nan
23166;BME280;11751;42.700;24.170;2023-02-22T00:44:43;93788.44;;;7.52;nan
23166;BME280;11751;42.700;24.170;2023-02-22T00:47:09;93786.44;;;7.60;nan
23166;BME280;11751;42.700;24.170;2023-02-22T00:49:35;93784.50;;;7.68;nan
23166;BME280;11751;42.700;24.170;2023-02-22T00:52:00;93790.06;;;7.68;nan
23166;BME280;11751;42.700;24.170;2023-02-22T00:54:26;93782.03;;;7.64;nan
23166;BME280;11751;42.700;24.170;2023-02-22T00:56:51;93774.50;;;7.72;nan
23166;BME280;11751;42.700;24.170;2023-02-22T00:59:17;93765.28;;;7.85;nan
23166;BME280;11751;42.700;24.170;2023-02-22T01:01:42;93769.81;;;7.95;nan
23166;BME280;11751;42.700;24.170;2023-02-22T01:04:08;93782.81;;;7.93;nan
23166;BME280;11751;42.700;24.170;2023-02-22T01:06:34;93788.59;;;7.95;nan
23166;BME280;11751;42.700;24.170;2023-02-22T01:09:00;93764.69;;;8.07;nan
23166;BME280;11751;42.700;24.170;2023-02-22T01:11:28;93773.53;;;7.98;nan
23166;BME280;11751;42.700;24.170;2023-02-22T01:13:55;93778.44;;;8.05;nan
23166;BME280;11751;42.700;24.170;2023-02-22T01:16:22;93775.84;;;8.07;nan
23166;BME280;11751;42.700;24.170;2023-02-22T01:18:47;93770.84;;;8.13;nan
23166;BME280;11751;42.700;24.170;2023-02-22T01:21:13;93750.28;;;8.16;nan
23166;BME280;11751;42.700;24.170;2023-02-22T01:23:38;93758.31;;;8.27;nan
23166;BME280;11751;42.700;24.170;2023-02-22T01:26:04;93762.81;;;8.37;nan
23166;BME280;11751;42.700;24.170;2023-02-22T01:28:31;93757.81;;;8.36;nan
23166;BME280;11751;42.700;24.170;2023-02-22T01:30:57;93747.03;;;8.40;nan
23166;BME280;11751;42.700;24.170;2023-02-22T01:33:22;93744.03;;;8.38;nan
23166;BME280;11751;42.700;24.170;2023-02-22T01:35:48;93747.78;;;8.48;nan
23166;BME280;11751;42.700;24.170;2023-02-22T01:38:15;93730.66;;;8.36;nan
23166;BME280;11751;42.700;24.170;2023-02-22T01:40:45;93761.81;;;8.62;nan
23166;BME280;11751;42.700;24.170;2023-02-22T01:45:52;93733.88;;;9.28;nan
23166;BME280;11751;42.700;24.170;2023-02-22T01:48:33;93735.38;;;9.51;nan
23166;BME280;11751;42.700;24.170;2023-02-22T01:51:07;93720.84;;;9.60;nan
23166;BME280;11751;42.700;24.170;2023-02-22T01:53:58;93751.41;;;9.58;nan
23166;BME280;11751;42.700;24.170;2023-02-22T01:56:27;93738.34;;;9.45;nan
23166;BME280;11751;42.700;24.170;2023-02-22T01:59:01;93744.31;;;9.34;nan
23166;BME280;11751;42.700;24.170;2023-02-22T02:01:28;93731.63;;;9.26;nan
23166;BME280;11751;42.700;24.170;2023-02-22T02:03:56;93730.50;;;9.29;nan
23166;BME280;11751;42.700;24.170;2023-02-22T02:06:24;93736.09;;;9.29;nan
23166;BME280;11751;42.700;24.170;2023-02-22T02:09:26;93752.31;;;9.23;nan
23166;BME280;11751;42.700;24.170;2023-02-22T02:11:54;93744.47;;;9.14;nan
23166;BME280;11751;42.700;24.170;2023-02-22T02:14:21;93757.53;;;9.27;nan
23166;BME280;11751;42.700;24.170;2023-02-22T02:16:49;93753.06;;;9.31;nan
23166;BME280;11751;42.700;24.170;2023-02-22T02:19:46;93760.31;;;9.19;nan
23166;BME280;11751;42.700;24.170;2023-02-22T02:41:12;93755.09;;;9.98;nan
23166;BME280;11751;42.700;24.170;2023-02-22T02:46:42;93774.06;;;10.51;nan
23166;BME280;11751;42.700;24.170;2023-02-22T02:49:18;93777.06;;;10.38;nan
23166;BME280;11751;42.700;24.170;2023-02-22T02:51:49;93776.84;;;10.51;nan
23166;BME280;11751;42.700;24.170;2023-02-22T02:54:18;93771.41;;;10.53;nan
23166;BME280;11751;42.700;24.170;2023-02-22T02:56:44;93782.06;;;10.55;nan
23166;BME280;11751;42.700;24.170;2023-02-22T02:59:26;93762.75;;;10.20;nan
23166;BME280;11751;42.700;24.170;2023-02-22T03:04:54;93778.00;;;10.33;nan
23166;BME280;11751;42.700;24.170;2023-02-22T03:12:37;93801.72;;;10.10;nan
23166;BME280;11751;42.700;24.170;2023-02-22T03:23:10;93791.06;;;9.49;nan
23166;BME280;11751;42.700;24.170;2023-02-22T03:26:00;93789.38;;;9.46;nan
23166;BME280;11751;42.700;24.170;2023-02-22T03:28:28;93781.97;;;9.48;nan
23166;BME280;11751;42.700;24.170;2023-02-22T03:30:58;93787.75;;;9.65;nan
23166;BME280;11751;42.700;24.170;2023-02-22T03:33:51;93801.91;;;9.82;nan
23166;BME280;11751;42.700;24.170;2023-02-22T03:36:26;93805.44;;;9.68;nan
23166;BME280;11751;42.700;24.170;2023-02-22T03:38:54;93805.81;;;9.49;nan
23166;BME280;11751;42.700;24.170;2023-02-22T03:41:22;93811.72;;;9.31;nan
23166;BME280;11751;42.700;24.170;2023-02-22T03:43:53;93802.06;;;9.32;nan
23166;BME280;11751;42.700;24.170;2023-02-22T03:46:22;93800.16;;;9.27;nan
23166;BME280;11751;42.700;24.170;2023-02-22T03:48:57;93802.38;;;9.14;nan
23166;BME280;11751;42.700;24.170;2023-02-22T03:51:24;93799.78;;;9.16;nan
23166;BME280;11751;42.700;24.170;2023-02-22T03:53:50;93811.28;;;9.05;nan
23166;BME280;11751;42.700;24.170;2023-02-22T03:56:29;93808.72;;;9.14;nan
23166;BME280;11751;42.700;24.170;2023-02-22T03:59:07;93805.72;;;9.12;nan
23166;BME280;11751;42.700;24.170;2023-02-22T04:01:34;93817.97;;;8.94;nan
23166;BME280;11751;42.700;24.170;2023-02-22T04:04:01;93811.25;;;8.97;nan
23166;BME280;11751;42.700;24.170;2023-02-22T04:06:27;93813.41;;;8.76;nan
23166;BME280;11751;42.700;24.170;2023-02-22T04:08:53;93806.03;;;8.94;nan
23166;BME280;11751;42.700;24.170;2023-02-22T04:11:18;93793.75;;;8.97;nan
23166;BME280;11751;42.700;24.170;2023-02-22T04:13:43;93810.31;;;8.95;nan
23166;BME280;11751;42.700;24.170;2023-02-22T04:16:09;93816.66;;;8.52;nan
23166;BME280;11751;42.700;24.170;2023-02-22T04:18:34;93807.06;;;8.68;nan
23166;BME280;11751;42.700;24.170;2023-02-22T04:21:00;93822.44;;;8.54;nan
23166;BME280;11751;42.700;24.170;2023-02-22T04:23:25;93810.00;;;8.63;nan
23166;BME280;11751;42.700;24.170;2023-02-22T04:25:51;93811.06;;;8.52;nan
23166;BME280;11751;42.700;24.170;2023-02-22T04:28:17;93822.13;;;8.38;nan
23166;BME280;11751;42.700;24.170;2023-02-22T04:30:42;93812.38;;;8.51;nan
23166;BME280;11751;42.700;24.170;2023-02-22T04:33:08;93813.25;;;8.39;nan
23166;BME280;11751;42.700;24.170;2023-02-22T04:35:34;93807.63;;;8.32;nan
23166;BME280;11751;42.700;24.170;2023-02-22T04:38:00;93824.28;;;8.17;nan
23166;BME280;11751;42.700;24.170;2023-02-22T04:40:25;93818.88;;;8.19;nan
23166;BME280;11751;42.700;24.170;2023-02-22T04:42:51;93814.25;;;8.21;nan
23166;BME280;11751;42.700;24.170;2023-02-22T04:45:16;93807.44;;;8.09;nan
23166;BME280;11751;42.700;24.170;2023-02-22T04:47:42;93816.31;;;8.00;nan
23166;BME280;11751;42.700;24.170;2023-02-22T04:50:09;93812.97;;;8.02;nan
23166;BME280;11751;42.700;24.170;2023-02-22T04:52:35;93821.84;;;7.93;nan
23166;BME280;11751;42.700;24.170;2023-02-22T04:55:00;93813.97;;;7.84;nan
23166;BME280;11751;42.700;24.170;2023-02-22T04:57:26;93820.72;;;7.68;nan
23166;BME280;11751;42.700;24.170;2023-02-22T04:59:52;93818.66;;;7.68;nan
23166;BME280;11751;42.700;24.170;2023-02-22T05:02:17;93822.81;;;7.55;nan
23166;BME280;11751;42.700;24.170;2023-02-22T05:04:43;93824.38;;;7.63;nan
23166;BME280;11751;42.700;24.170;2023-02-22T05:07:09;93811.53;;;7.60;nan
23166;BME280;11751;42.700;24.170;2023-02-22T05:09:34;93819.41;;;7.49;nan
23166;BME280;11751;42.700;24.170;2023-02-22T05:12:00;93820.38;;;7.51;nan
23166;BME280;11751;42.700;24.170;2023-02-22T05:14:25;93824.66;;;7.52;nan
23166;BME280;11751;42.700;24.170;2023-02-22T05:16:54;93830.22;;;7.52;nan
23166;BME280;11751;42.700;24.170;2023-02-22T05:19:19;93825.34;;;7.45;nan
23166;BME280;11751;42.700;24.170;2023-02-22T05:21:45;93844.56;;;7.02;nan
23166;BME280;11751;42.700;24.170;2023-02-22T05:24:10;93836.66;;;7.06;nan
23166;BME280;11751;42.700;24.170;2023-02-22T05:26:36;93837.13;;;6.84;nan
23166;BME280;11751;42.700;24.170;2023-02-22T05:29:01;93849.09;;;6.92;nan
23166;BME280;11751;42.700;24.170;2023-02-22T05:31:27;93844.63;;;6.89;nan
23166;BME280;11751;42.700;24.170;2023-02-22T05:33:52;93842.56;;;6.90;nan
23166;BME280;11751;42.700;24.170;2023-02-22T05:36:17;93851.50;;;6.76;nan
23166;BME280;11751;42.700;24.170;2023-02-22T05:38:43;93866.69;;;6.75;nan
23166;BME280;11751;42.700;24.170;2023-02-22T05:41:10;93862.44;;;6.61;nan
23166;BME280;11751;42.700;24.170;2023-02-22T05:43:37;93861.91;;;6.62;nan
23166;BME280;11751;42.700;24.170;2023-02-22T05:46:03;93878.06;;;6.51;nan
23166;BME280;11751;42.700;24.170;2023-02-22T05:48:28;93877.63;;;6.34;nan
23166;BME280;11751;42.700;24.170;2023-02-22T05:50:55;93876.34;;;6.35;nan
23166;BME280;11751;42.700;24.170;2023-02-22T05:53:20;93876.13;;;6.46;nan
23166;BME280;11751;42.700;24.170;2023-02-22T05:55:48;93874.34;;;6.35;nan
23166;BME280;11751;42.700;24.170;2023-02-22T05:58:13;93882.97;;;6.45;nan
23166;BME280;11751;42.700;24.170;2023-02-22T06:00:39;93884.59;;;6.53;nan
23166;BME280;11751;42.700;24.170;2023-02-22T06:03:06;93887.16;;;6.51;nan
23166;BME280;11751;42.700;24.170;2023-02-22T06:05:34;93890.16;;;6.53;nan
23166;BME280;11751;42.700;24.170;2023-02-22T06:08:00;93887.47;;;6.61;nan
23166;BME280;11751;42.700;24.170;2023-02-22T06:10:26;93900.50;;;6.66;nan
23166;BME280;11751;42.700;24.170;2023-02-22T06:12:52;93887.22;;;6.72;nan
23166;BME280;11751;42.700;24.170;2023-02-22T06:15:19;93899.00;;;6.78;nan
23166;BME280;11751;42.700;24.170;2023-02-22T06:17:46;93886.16;;;6.87;nan
23166;BME280;11751;42.700;24.170;2023-02-22T06:20:15;93894.91;;;6.91;nan
23166;BME280;11751;42.700;24.170;2023-02-22T06:22:40;93885.59;;;7.02;nan
23166;BME280;11751;42.700;24.170;2023-02-22T06:25:07;93888.00;;;7.18;nan
23166;BME280;11751;42.700;24.170;2023-02-22T06:27:33;93872.41;;;7.02;nan
23166;BME280;11751;42.700;24.170;2023-02-22T06:29:59;93892.47;;;7.21;nan
23166;BME280;11751;42.700;24.170;2023-02-22T06:32:25;93884.81;;;7.35;nan
23166;BME280;11751;42.700;24.170;2023-02-22T06:34:51;93898.22;;;7.36;nan
23166;BME280;11751;42.700;24.170;2023-02-22T06:37:16;93895.38;;;7.49;nan
23166;BME280;11751;42.700;24.170;2023-02-22T06:39:42;93894.28;;;7.52;nan
23166;BME280;11751;42.700;24.170;2023-02-22T06:42:07;93912.59;;;7.61;nan
23166;BME280;11751;42.700;24.170;2023-02-22T06:44:32;93907.38;;;7.57;nan
23166;BME280;11751;42.700;24.170;2023-02-22T06:46:58;93910.19;;;7.64;nan
23166;BME280;11751;42.700;24.170;2023-02-22T06:49:25;93907.75;;;7.61;nan
23166;BME280;11751;42.700;24.170;2023-02-22T06:51:52;93909.03;;;7.60;nan
23166;BME280;11751;42.700;24.170;2023-02-22T06:54:18;93911.81;;;7.60;nan
23166;BME280;11751;42.700;24.170;2023-02-22T06:56:43;93906.75;;;7.71;nan
23166;BME280;11751;42.700;24.170;2023-02-22T06:59:09;93903.56;;;7.88;nan
23166;BME280;11751;42.700;24.170;2023-02-22T07:01:35;93906.53;;;7.90;nan
23166;BME280;11751;42.700;24.170;2023-02-22T07:04:00;93907.22;;;8.03;nan
23166;BME280;11751;42.700;24.170;2023-02-22T07:06:26;93911.72;;;8.27;nan
23166;BME280;11751;42.700;24.170;2023-02-22T07:08:51;93917.19;;;8.40;nan
23166;BME280;11751;42.700;24.170;2023-02-22T07:11:17;93908.94;;;8.54;nan
23166;BME280;11751;42.700;24.170;2023-02-22T07:13:42;93908.66;;;8.65;nan
23166;BME280;11751;42.700;24.170;2023-02-22T07:16:08;93897.25;;;8.91;nan
23166;BME280;11751;42.700;24.170;2023-02-22T07:18:33;93897.69;;;9.10;nan
23166;BME280;11751;42.700;24.170;2023-02-22T07:20:59;93893.84;;;9.28;nan
23166;BME280;11751;42.700;24.170;2023-02-22T07:23:24;93902.66;;;9.47;nan
23166;BME280;11751;42.700;24.170;2023-02-22T07:25:51;93896.38;;;9.54;nan
23166;BME280;11751;42.700;24.170;2023-02-22T07:28:16;93896.41;;;9.69;nan
23166;BME280;11751;42.700;24.170;2023-02-22T07:30:42;93898.84;;;9.80;nan
23166;BME280;11751;42.700;24.170;2023-02-22T07:33:10;93892.56;;;10.02;nan
23166;BME280;11751;42.700;24.170;2023-02-22T07:35:44;93893.13;;;10.08;nan
23166;BME280;11751;42.700;24.170;2023-02-22T07:38:11;93900.59;;;10.27;nan
23166;BME280;11751;42.700;24.170;2023-02-22T07:40:37;93889.75;;;10.39;nan
23166;BME280;11751;42.700;24.170;2023-02-22T07:43:11;93903.56;;;10.59;nan
23166;BME280;11751;42.700;24.170;2023-02-22T07:45:38;93897.91;;;10.74;nan
23166;BME280;11751;42.700;24.170;2023-02-22T07:48:04;93902.16;;;10.98;nan
23166;BME280;11751;42.700;24.170;2023-02-22T07:50:31;93902.50;;;11.09;nan
23166;BME280;11751;42.700;24.170;2023-02-22T07:52:58;93890.72;;;11.18;nan
23166;BME280;11751;42.700;24.170;2023-02-22T07:55:26;93889.56;;;11.21;nan
23166;BME280;11751;42.700;24.170;2023-02-22T07:57:54;93895.44;;;11.47;nan
23166;BME280;11751;42.700;24.170;2023-02-22T08:00:31;93889.25;;;11.56;nan
23166;BME280;11751;42.700;24.170;2023-02-22T08:02:59;93882.25;;;11.72;nan
23166;BME280;11751;42.700;24.170;2023-02-22T08:05:27;93876.25;;;11.76;nan
23166;BME280;11751;42.700;24.170;2023-02-22T08:07:52;93879.94;;;11.86;nan
23166;BME280;11751;42.700;24.170;2023-02-22T08:10:20;93877.00;;;12.00;nan
23166;BME280;11751;42.700;24.170;2023-02-22T08:12:46;93871.50;;;12.17;nan
23166;BME280;11751;42.700;24.170;2023-02-22T08:17:44;93864.63;;;12.52;nan
23166;BME280;11751;42.700;24.170;2023-02-22T08:20:10;93868.28;;;12.79;nan
23166;BME280;11751;42.700;24.170;2023-02-22T08:22:35;93877.53;;;12.96;nan
23166;BME280;11751;42.700;24.170;2023-02-22T08:25:00;93868.84;;;13.02;nan
23166;BME280;11751;42.700;24.170;2023-02-22T08:27:28;93869.34;;;13.25;nan
23166;BME280;11751;42.700;24.170;2023-02-22T08:29:54;93860.88;;;13.42;nan
23166;BME280;11751;42.700;24.170;2023-02-22T08:32:21;93866.63;;;13.61;nan
23166;BME280;11751;42.700;24.170;2023-02-22T08:34:47;93862.72;;;13.73;nan
23166;BME280;11751;42.700;24.170;2023-02-22T08:37:13;93866.22;;;13.90;nan
23166;BME280;11751;42.700;24.170;2023-02-22T08:39:39;93862.38;;;14.12;nan
23166;BME280;11751;42.700;24.170;2023-02-22T08:42:05;93869.84;;;14.27;nan
23166;BME280;11751;42.700;24.170;2023-02-22T08:44:30;93860.38;;;14.32;nan
23166;BME280;11751;42.700;24.170;2023-02-22T08:46:55;93863.13;;;14.49;nan
23166;BME280;11751;42.700;24.170;2023-02-22T08:49:22;93865.34;;;14.50;nan
23166;BME280;11751;42.700;24.170;2023-02-22T08:51:48;93874.59;;;14.34;nan
23166;BME280;11751;42.700;24.170;2023-02-22T08:54:13;93871.13;;;14.52;nan
23166;BME280;11751;42.700;24.170;2023-02-22T08:56:38;93853.56;;;14.99;nan
23166;BME280;11751;42.700;24.170;2023-02-22T08:59:04;93875.69;;;15.02;nan
23166;BME280;11751;42.700;24.170;2023-02-22T09:01:29;93870.69;;;14.65;nan
23166;BME280;11751;42.700;24.170;2023-02-22T09:03:56;93873.16;;;14.97;nan
23166;BME280;11751;42.700;24.170;2023-02-22T09:06:22;93858.63;;;14.91;nan
23166;BME280;11751;42.700;24.170;2023-02-22T09:08:48;93857.69;;;14.79;nan
23166;BME280;11751;42.700;24.170;2023-02-22T09:11:13;93867.34;;;14.85;nan
23166;BME280;11751;42.700;24.170;2023-02-22T09:13:38;93864.06;;;14.70;nan
23166;BME280;11751;42.700;24.170;2023-02-22T09:16:04;93860.66;;;14.81;nan
23166;BME280;11751;42.700;24.170;2023-02-22T09:18:30;93854.69;;;14.58;nan
23166;BME280;11751;42.700;24.170;2023-02-22T09:20:56;93852.94;;;14.81;nan
23166;BME280;11751;42.700;24.170;2023-02-22T09:23:22;93861.88;;;14.97;nan
23166;BME280;11751;42.700;24.170;2023-02-22T09:25:48;93861.75;;;15.14;nan
23166;BME280;11751;42.700;24.170;2023-02-22T09:28:14;93858.63;;;15.00;nan
23166;BME280;11751;42.700;24.170;2023-02-22T09:30:39;93853.03;;;15.29;nan
23166;BME280;11751;42.700;24.170;2023-02-22T09:33:11;93849.75;;;15.51;nan
23166;BME280;11751;42.700;24.170;2023-02-22T09:35:37;93840.38;;;15.58;nan
23166;BME280;11751;42.700;24.170;2023-02-22T09:38:07;93850.81;;;15.46;nan
23166;BME280;11751;42.700;24.170;2023-02-22T09:40:35;93842.03;;;15.51;nan
23166;BME280;11751;42.700;24.170;2023-02-22T09:48:30;93839.03;;;15.59;nan
23166;BME280;11751;42.700;24.170;2023-02-22T09:50:59;93841.41;;;15.62;nan
23166;BME280;11751;42.700;24.170;2023-02-22T09:53:42;93838.44;;;15.79;nan
23166;BME280;11751;42.700;24.170;2023-02-22T09:56:11;93838.00;;;15.64;nan
23166;BME280;11751;42.700;24.170;2023-02-22T09:58:50;93839.06;;;15.49;nan
23166;BME280;11751;42.700;24.170;2023-02-22T10:02:02;93839.50;;;15.65;nan
23166;BME280;11751;42.700;24.170;2023-02-22T10:09:44;93830.56;;;15.59;nan
23166;BME280;11751;42.700;24.170;2023-02-22T10:28:53;93801.75;;;16.19;nan
23166;BME280;11751;42.700;24.170;2023-02-22T10:31:27;93800.34;;;16.39;nan
23166;BME280;11751;42.700;24.170;2023-02-22T10:33:59;93787.13;;;16.32;nan
23166;BME280;11751;42.700;24.170;2023-02-22T10:36:26;93798.97;;;16.40;nan
23166;BME280;11751;42.700;24.170;2023-02-22T10:38:58;93787.03;;;16.51;nan
23166;BME280;11751;42.700;24.170;2023-02-22T10:41:31;93780.91;;;16.75;nan
23166;BME280;11751;42.700;24.170;2023-02-22T10:43:58;93767.13;;;16.70;nan
23166;BME280;11751;42.700;24.170;2023-02-22T10:46:26;93775.06;;;16.62;nan
23166;BME280;11751;42.700;24.170;2023-02-22T10:48:54;93778.56;;;16.72;nan
23166;BME280;11751;42.700;24.170;2023-02-22T10:51:21;93776.56;;;16.84;nan
23166;BME280;11751;42.700;24.170;2023-02-22T10:53:57;93777.66;;;16.79;nan
23166;BME280;11751;42.700;24.170;2023-02-22T10:56:26;93763.47;;;17.00;nan
23166;BME280;11751;42.700;24.170;2023-02-22T10:58:57;93774.41;;;16.94;nan
23166;BME280;11751;42.700;24.170;2023-02-22T11:01:35;93771.72;;;16.75;nan
23166;BME280;11751;42.700;24.170;2023-02-22T11:04:13;93768.75;;;16.73;nan
23166;BME280;11751;42.700;24.170;2023-02-22T11:06:42;93761.03;;;16.43;nan
23166;BME280;11751;42.700;24.170;2023-02-22T11:09:11;93753.03;;;16.09;nan
23166;BME280;11751;42.700;24.170;2023-02-22T11:11:41;93746.91;;;16.13;nan
23166;BME280;11751;42.700;24.170;2023-02-22T11:14:07;93752.22;;;16.18;nan
23166;BME280;11751;42.700;24.170;2023-02-22T11:16:41;93734.25;;;16.44;nan
23166;BME280;11751;42.700;24.170;2023-02-22T11:19:20;93753.66;;;16.38;nan
23166;BME280;11751;42.700;24.170;2023-02-22T11:21:50;93734.28;;;16.65;nan
23166;BME280;11751;42.700;24.170;2023-02-22T11:24:17;93740.22;;;16.69;nan
23166;BME280;11751;42.700;24.170;2023-02-22T11:26:50;93743.41;;;16.54;nan
23166;BME280;11751;42.700;24.170;2023-02-22T11:31:50;93733.28;;;16.30;nan
23166;BME280;11751;42.700;24.170;2023-02-22T11:36:51;93729.13;;;16.31;nan
23166;BME280;11751;42.700;24.170;2023-02-22T11:39:28;93724.09;;;16.29;nan
23166;BME280;11751;42.700;24.170;2023-02-22T11:41:56;93726.31;;;16.52;nan
23166;BME280;11751;42.700;24.170;2023-02-22T11:44:30;93720.69;;;16.73;nan
23166;BME280;11751;42.700;24.170;2023-02-22T11:46:59;93734.56;;;16.69;nan
23166;BME280;11751;42.700;24.170;2023-02-22T11:49:36;93720.47;;;16.59;nan
23166;BME280;11751;42.700;24.170;2023-02-22T11:54:50;93711.19;;;16.68;nan
23166;BME280;11751;42.700;24.170;2023-02-22T12:00:14;93712.31;;;16.96;nan
23166;BME280;11751;42.700;24.170;2023-02-22T12:11:41;93700.75;;;16.71;nan
23166;BME280;11751;42.700;24.170;2023-02-22T12:22:00;93683.81;;;17.03;nan
23166;BME280;11751;42.700;24.170;2023-02-22T12:24:36;93694.28;;;16.80;nan
23166;BME280;11751;42.700;24.170;2023-02-22T12:27:08;93689.28;;;16.90;nan
23166;BME280;11751;42.700;24.170;2023-02-22T12:29:47;93682.38;;;17.13;nan
23166;BME280;11751;42.700;24.170;2023-02-22T12:32:38;93683.16;;;16.93;nan
23166;BME280;11751;42.700;24.170;2023-02-22T12:35:27;93679.84;;;16.97;nan
23166;BME280;11751;42.700;24.170;2023-02-22T12:38:27;93678.03;;;17.01;nan
23166;BME280;11751;42.700;24.170;2023-02-22T12:43:33;93675.38;;;17.14;nan
23166;BME280;11751;42.700;24.170;2023-02-22T12:46:38;93673.66;;;16.89;nan
23166;BME280;11751;42.700;24.170;2023-02-22T12:55:23;93660.28;;;16.89;nan
23166;BME280;11751;42.700;24.170;2023-02-22T12:58:01;93660.91;;;16.99;nan
23166;BME280;11751;42.700;24.170;2023-02-22T13:00:47;93657.47;;;17.01;nan
23166;BME280;11751;42.700;24.170;2023-02-22T13:03:32;93659.88;;;16.83;nan
23166;BME280;11751;42.700;24.170;2023-02-22T13:15:07;93674.25;;;16.55;nan
23166;BME280;11751;42.700;24.170;2023-02-22T13:18:19;93655.66;;;16.73;nan
23166;BME280;11751;42.700;24.170;2023-02-22T13:23:40;93665.88;;;17.10;nan
23166;BME280;11751;42.700;24.170;2023-02-22T13:28:39;93664.41;;;16.77;nan
23166;BME280;11751;42.700;24.170;2023-02-22T13:36:23;93656.34;;;17.26;nan
23166;BME280;11751;42.700;24.170;2023-02-22T13:39:28;93654.09;;;17.13;nan
23166;BME280;11751;42.700;24.170;2023-02-22T13:42:13;93655.06;;;17.07;nan
23166;BME280;11751;42.700;24.170;2023-02-22T13:50:24;93649.13;;;17.03;nan
23166;BME280;11751;42.700;24.170;2023-02-22T13:52:55;93621.72;;;16.73;nan
23166;BME280;11751;42.700;24.170;2023-02-22T13:55:28;93644.16;;;16.92;nan
23166;BME280;11751;42.700;24.170;2023-02-22T13:58:03;93648.09;;;16.87;nan
23166;BME280;11751;42.700;24.170;2023-02-22T14:00:50;93656.44;;;16.85;nan
23166;BME280;11751;42.700;24.170;2023-02-22T14:03:48;93637.78;;;16.91;nan
23166;BME280;11751;42.700;24.170;2023-02-22T14:06:36;93639.72;;;16.89;nan
23166;BME280;11751;42.700;24.170;2023-02-22T14:09:13;93640.75;;;16.93;nan
23166;BME280;11751;42.700;24.170;2023-02-22T14:11:44;93637.19;;;16.72;nan
23166;BME280;11751;42.700;24.170;2023-02-22T14:14:11;93640.69;;;16.82;nan
23166;BME280;11751;42.700;24.170;2023-02-22T14:16:37;93628.94;;;16.97;nan
23166;BME280;11751;42.700;24.170;2023-02-22T14:19:03;93638.16;;;16.97;nan
23166;BME280;11751;42.700;24.170;2023-02-22T14:21:32;93634.50;;;16.74;nan
23166;BME280;11751;42.700;24.170;2023-02-22T14:24:15;93631.53;;;16.72;nan
23166;BME280;11751;42.700;24.170;2023-02-22T14:26:54;93632.81;;;16.80;nan
23166;BME280;11751;42.700;24.170;2023-02-22T14:29:20;93635.09;;;16.93;nan
23166;BME280;11751;42.700;24.170;2023-02-22T14:34:15;93633.34;;;17.00;nan
23166;BME280;11751;42.700;24.170;2023-02-22T14:36:55;93636.03;;;16.86;nan
23166;BME280;11751;42.700;24.170;2023-02-22T14:42:20;93633.31;;;16.77;nan
23166;BME280;11751;42.700;24.170;2023-02-22T14:47:20;93634.94;;;16.59;nan
23166;BME280;11751;42.700;24.170;2023-02-22T14:49:58;93641.88;;;16.46;nan
23166;BME280;11751;42.700;24.170;2023-02-22T14:52:29;93641.25;;;16.27;nan
23166;BME280;11751;42.700;24.170;2023-02-22T14:57:47;93646.97;;;16.18;nan
23166;BME280;11751;42.700;24.170;2023-02-22T15:00:23;93644.88;;;16.18;nan
23166;BME280;11751;42.700;24.170;2023-02-22T15:02:56;93639.25;;;16.18;nan
23166;BME280;11751;42.700;24.170;2023-02-22T15:05:24;93632.69;;;16.16;nan
23166;BME280;11751;42.700;24.170;2023-02-22T15:08:02;93634.53;;;16.32;nan
23166;BME280;11751;42.700;24.170;2023-02-22T15:10:39;93641.41;;;16.29;nan
23166;BME280;11751;42.700;24.170;2023-02-22T15:15:44;93634.47;;;16.21;nan
23166;BME280;11751;42.700;24.170;2023-02-22T15:20:56;93635.78;;;15.99;nan
23166;BME280;11751;42.700;24.170;2023-02-22T15:23:28;93634.78;;;15.94;nan
23166;BME280;11751;42.700;24.170;2023-02-22T15:25:55;93626.72;;;16.00;nan
23166;BME280;11751;42.700;24.170;2023-02-22T15:28:22;93627.38;;;15.89;nan
23166;BME280;11751;42.700;24.170;2023-02-22T15:30:48;93637.44;;;15.92;nan
23166;BME280;11751;42.700;24.170;2023-02-22T15:33:16;93629.41;;;15.98;nan
23166;BME280;11751;42.700;24.170;2023-02-22T15:35:53;93626.97;;;16.04;nan
23166;BME280;11751;42.700;24.170;2023-02-22T15:38:21;93631.25;;;15.84;nan
23166;BME280;11751;42.700;24.170;2023-02-22T15:41:05;93619.72;;;15.80;nan
23166;BME280;11751;42.700;24.170;2023-02-22T15:43:33;93629.56;;;15.70;nan
23166;BME280;11751;42.700;24.170;2023-02-22T15:45:59;93627.53;;;15.61;nan
23166;BME280;11751;42.700;24.170;2023-02-22T15:48:26;93629.41;;;15.68;nan
23166;BME280;11751;42.700;24.170;2023-02-22T15:51:06;93634.31;;;15.67;nan
23166;BME280;11751;42.700;24.170;2023-02-22T15:56:09;93635.25;;;15.60;nan
23166;BME280;11751;42.700;24.170;2023-02-22T15:58:36;93636.16;;;15.53;nan
23166;BME280;11751;42.700;24.170;2023-02-22T16:01:12;93631.75;;;15.50;nan